Time,TemperatureF,DewpointF,PressureIn,WindDirection,WindDirectionDegrees,WindSpeedMPH,WindSpeedGustMPH,Humidity,HourlyPrecipIn,Conditions,Clouds,dailyrainin,SolarRadiationWatts/m^2,SoftwareType,DateUTC
2013-06-20 00:11:00,50.0,47.0,30.08,NW,309,2.0,3.0,88,0.00,,,0.00,0,weatherlink.com 1.10,2013-06-20 04:11:00,
2013-06-20 00:26:00,49.5,46.0,30.08,WNW,292,0.0,3.0,89,0.00,,,0.00,0,weatherlink.com 1.10,2013-06-20 04:26:00,
2013-06-20 00:41:00,49.7,47.0,30.08,West,275,1.0,4.0,89,0.00,,,0.00,0,weatherlink.com 1.10,2013-06-20 04:41:00,
2013-06-20 00:56:00,50.0,47.0,30.08,West,281,0.0,4.0,88,0.00,,,0.00,0,weatherlink.com 1.10,2013-06-20 04:56:00,
2013-06-20 01:11:00,48.5,46.0,30.09,WNW,282,0.0,2.0,89,0.00,,,0.00,0,weatherlink.com 1.10,2013-06-20 05:11:00,
2013-06-20 01:26:00,47.8,45.0,30.09,WNW,282,0.0,0.0,91,0.00,,,0.00,0,weatherlink.com 1.10,2013-06-20 05:26:00,
2013-06-20 01:41:00,48.1,46.0,30.10,WNW,282,0.0,1.0,91,0.00,,,0.00,0,weatherlink.com 1.10,2013-06-20 05:41:00,
2013-06-20 01:56:00,47.6,45.0,30.10,WNW,282,0.0,1.0,91,0.00,,,0.00,0,weatherlink.com 1.10,2013-06-20 05:56:00,
2013-06-20 02:11:00,47.0,45.0,30.11,WNW,282,0.0,0.0,92,0.00,,,0.00,0,weatherlink.com 1.10,2013-06-20 06:11:00,
2013-06-20 02:26:00,46.4,44.0,30.11,WNW,282,2.0,2.0,92,0.00,,,0.00,0,weatherlink.com 1.10,2013-06-20 06:26:00,
2013-06-20 02:41:00,46.3,44.0,30.11,NW,305,1.0,3.0,93,0.00,,,0.00,0,weatherlink.com 1.10,2013-06-20 06:41:00,
2013-06-20 02:56:00,45.8,44.0,30.11,NW,305,0.0,0.0,92,0.00,,,0.00,0,weatherlink.com 1.10,2013-06-20 06:56:00,
2013-06-20 03:11:00,45.3,43.0,30.11,NW,305,0.0,0.0,93,0.00,,,0.00,0,weatherlink.com 1.10,2013-06-20 07:11:00,
2013-06-20 03:26:00,44.8,43.0,30.11,NW,305,0.0,1.0,94,0.00,,,0.00,0,weatherlink.com 1.10,2013-06-20 07:26:00,
2013-06-20 03:41:00,44.5,43.0,30.11,NW,305,0.0,1.0,94,0.00,,,0.00,0,weatherlink.com 1.10,2013-06-20 07:41:00,
2013-06-20 03:56:00,44.4,43.0,30.12,NNW,327,3.0,3.0,95,0.00,,,0.00,0,weatherlink.com 1.10,2013-06-20 07:56:00,
2013-06-20 04:11:00,44.6,43.0,30.12,WNW,294,2.0,3.0,94,0.00,,,0.00,0,weatherlink.com 1.10,2013-06-20 08:11:00,
2013-06-20 04:26:00,44.4,43.0,30.13,NW,315,1.0,2.0,94,0.00,,,0.00,0,weatherlink.com 1.10,2013-06-20 08:26:00,
2013-06-20 04:41:00,44.1,43.0,30.13,NW,319,1.0,2.0,94,0.00,,,0.00,0,weatherlink.com 1.10,2013-06-20 08:41:00,
2013-06-20 04:56:00,44.1,43.0,30.13,NW,324,0.0,2.0,95,0.00,,,0.00,9,weatherlink.com 1.10,2013-06-20 08:56:00,
2013-06-20 05:12:00,44.4,43.0,30.14,NW,315,0.0,2.0,95,0.00,,,0.00,18,weatherlink.com 1.10,2013-06-20 09:12:00,
2013-06-20 05:27:00,44.8,44.0,30.15,NW,308,0.0,3.0,95,0.00,,,0.00,37,weatherlink.com 1.10,2013-06-20 09:27:00,
2013-06-20 05:42:00,45.4,44.0,30.15,WNW,300,0.0,3.0,95,0.00,,,0.00,86,weatherlink.com 1.10,2013-06-20 09:42:00,
2013-06-20 05:57:00,47.6,46.0,30.16,WNW,284,1.0,4.0,95,0.00,,,0.00,141,weatherlink.com 1.10,2013-06-20 09:57:00,
2013-06-20 06:12:00,49.3,47.0,30.16,NW,313,0.0,3.0,91,0.00,,,0.00,120,weatherlink.com 1.10,2013-06-20 10:12:00,
2013-06-20 06:27:00,50.0,48.0,30.16,NW,313,0.0,1.0,91,0.00,,,0.00,88,weatherlink.com 1.10,2013-06-20 10:27:00,
2013-06-20 06:42:00,51.9,49.0,30.17,NW,313,0.0,1.0,91,0.00,,,0.00,234,weatherlink.com 1.10,2013-06-20 10:42:00,
2013-06-20 06:57:00,54.5,52.0,30.17,NW,313,0.0,0.0,90,0.00,,,0.00,311,weatherlink.com 1.10,2013-06-20 10:57:00,
2013-06-20 07:12:00,57.5,52.0,30.18,NW,313,0.0,1.0,83,0.00,,,0.00,176,weatherlink.com 1.10,2013-06-20 11:12:00,
2013-06-20 07:27:00,59.1,52.0,30.19,NW,318,0.0,1.0,76,0.00,,,0.00,158,weatherlink.com 1.10,2013-06-20 11:27:00,
2013-06-20 07:42:00,61.2,54.0,30.19,NW,318,0.0,1.0,76,0.00,,,0.00,197,weatherlink.com 1.10,2013-06-20 11:42:00,
2013-06-20 07:57:00,64.2,55.0,30.19,NW,318,0.0,1.0,73,0.00,,,0.00,211,weatherlink.com 1.10,2013-06-20 11:57:00,
2013-06-20 08:12:00,66.1,53.0,30.19,West,280,0.0,2.0,64,0.00,,,0.00,603,weatherlink.com 1.10,2013-06-20 12:12:00,
2013-06-20 08:27:00,68.3,54.0,30.19,NE,50,0.0,1.0,60,0.00,,,0.00,640,weatherlink.com 1.10,2013-06-20 12:27:00,
2013-06-20 08:42:00,70.2,55.0,30.19,SE,143,0.0,2.0,59,0.00,,,0.00,703,weatherlink.com 1.10,2013-06-20 12:42:00,
2013-06-20 08:57:00,71.4,54.0,30.19,East,97,2.0,2.0,54,0.00,,,0.00,693,weatherlink.com 1.10,2013-06-20 12:57:00,
2013-06-20 09:12:00,72.6,54.0,30.18,NNE,30,0.0,3.0,52,0.00,,,0.00,703,weatherlink.com 1.10,2013-06-20 13:12:00,
2013-06-20 09:27:00,73.2,53.0,30.18,SSE,162,0.0,2.0,50,0.00,,,0.00,735,weatherlink.com 1.10,2013-06-20 13:27:00,
2013-06-20 09:43:00,73.8,53.0,30.18,East,84,0.0,3.0,49,0.00,,,0.00,772,weatherlink.com 1.10,2013-06-20 13:43:00,
2013-06-20 09:58:00,74.3,53.0,30.18,NE,37,1.0,5.0,47,0.00,,,0.00,770,weatherlink.com 1.10,2013-06-20 13:58:00,
2013-06-20 10:13:00,73.3,50.0,30.18,NNE,28,1.0,4.0,44,0.00,,,0.00,984,weatherlink.com 1.10,2013-06-20 14:13:00,
2013-06-20 10:28:00,75.2,50.0,30.18,WNW,290,0.0,2.0,41,0.00,,,0.00,902,weatherlink.com 1.10,2013-06-20 14:28:00,
2013-06-20 10:43:00,73.1,49.0,30.18,NE,42,0.0,3.0,42,0.00,,,0.00,197,weatherlink.com 1.10,2013-06-20 14:43:00,
2013-06-20 10:58:00,73.6,50.0,30.18,NNE,18,2.0,4.0,44,0.00,,,0.00,158,weatherlink.com 1.10,2013-06-20 14:58:00,
2013-06-20 11:13:00,74.8,50.0,30.18,South,185,0.0,4.0,42,0.00,,,0.00,998,weatherlink.com 1.10,2013-06-20 15:13:00,
2013-06-20 11:28:00,74.1,51.0,30.18,SW,221,0.0,4.0,44,0.00,,,0.00,204,weatherlink.com 1.10,2013-06-20 15:28:00,
2013-06-20 11:43:00,75.7,47.0,30.18,SW,229,4.0,11.0,36,0.00,,,0.00,932,weatherlink.com 1.10,2013-06-20 15:43:00,
2013-06-20 11:58:00,76.8,45.0,30.18,WNW,299,5.0,8.0,32,0.00,,,0.00,933,weatherlink.com 1.10,2013-06-20 15:58:00,
2013-06-20 12:13:00,77.1,45.0,30.18,WNW,289,4.0,10.0,32,0.00,,,0.00,937,weatherlink.com 1.10,2013-06-20 16:13:00,
2013-06-20 12:28:00,77.2,45.0,30.18,South,188,5.0,10.0,32,0.00,,,0.00,928,weatherlink.com 1.10,2013-06-20 16:28:00,
2013-06-20 12:43:00,77.1,44.0,30.18,West,279,6.0,7.0,31,0.00,,,0.00,976,weatherlink.com 1.10,2013-06-20 16:43:00,
2013-06-20 12:58:00,77.1,43.0,30.17,SW,229,1.0,8.0,30,0.00,,,0.00,963,weatherlink.com 1.10,2013-06-20 16:58:00,
2013-06-20 13:13:00,77.7,45.0,30.17,SSW,197,2.0,7.0,31,0.00,,,0.00,956,weatherlink.com 1.10,2013-06-20 17:13:00,
2013-06-20 13:28:00,77.6,44.0,30.18,SSW,199,3.0,7.0,30,0.00,,,0.00,914,weatherlink.com 1.10,2013-06-20 17:28:00,
2013-06-20 13:43:00,77.8,45.0,30.17,SSW,210,2.0,11.0,31,0.00,,,0.00,884,weatherlink.com 1.10,2013-06-20 17:43:00,
2013-06-20 13:58:00,78.0,45.0,30.16,West,264,6.0,11.0,31,0.00,,,0.00,863,weatherlink.com 1.10,2013-06-20 17:58:00,
2013-06-20 14:13:00,78.0,47.0,30.16,SSW,196,0.0,9.0,33,0.00,,,0.00,831,weatherlink.com 1.10,2013-06-20 18:13:00,
2013-06-20 14:28:00,78.2,45.0,30.16,NW,323,3.0,11.0,31,0.00,,,0.00,803,weatherlink.com 1.10,2013-06-20 18:28:00,
2013-06-20 14:43:00,78.3,46.0,30.16,SE,127,4.0,10.0,32,0.00,,,0.00,786,weatherlink.com 1.10,2013-06-20 18:43:00,
2013-06-20 14:58:00,77.6,45.0,30.16,SW,217,4.0,9.0,32,0.00,,,0.00,712,weatherlink.com 1.10,2013-06-20 18:58:00,
2013-06-20 15:13:00,77.9,47.0,30.16,SW,223,1.0,9.0,33,0.00,,,0.00,684,weatherlink.com 1.10,2013-06-20 19:13:00,
2013-06-20 15:28:00,77.6,49.0,30.15,East,92,6.0,11.0,37,0.00,,,0.00,686,weatherlink.com 1.10,2013-06-20 19:28:00,
2013-06-20 15:43:00,77.6,49.0,30.15,SW,236,2.0,9.0,37,0.00,,,0.00,643,weatherlink.com 1.10,2013-06-20 19:43:00,
2013-06-20 15:58:00,77.1,50.0,30.15,SE,137,4.0,8.0,38,0.00,,,0.00,596,weatherlink.com 1.10,2013-06-20 19:58:00,
2013-06-20 16:13:00,76.3,50.0,30.15,SE,128,4.0,8.0,40,0.00,,,0.00,563,weatherlink.com 1.10,2013-06-20 20:13:00,
2013-06-20 16:28:00,76.5,50.0,30.15,ESE,114,3.0,8.0,39,0.00,,,0.00,517,weatherlink.com 1.10,2013-06-20 20:28:00,
2013-06-20 16:43:00,75.3,51.0,30.15,SSE,160,6.0,8.0,42,0.00,,,0.00,483,weatherlink.com 1.10,2013-06-20 20:43:00,
2013-06-20 16:58:00,75.3,52.0,30.14,SSE,166,2.0,9.0,44,0.00,,,0.00,443,weatherlink.com 1.10,2013-06-20 20:58:00,
2013-06-20 17:13:00,75.0,51.0,30.14,ESE,117,2.0,8.0,43,0.00,,,0.00,397,weatherlink.com 1.10,2013-06-20 21:13:00,
2013-06-20 17:28:00,75.1,52.0,30.14,WSW,248,3.0,8.0,44,0.00,,,0.00,362,weatherlink.com 1.10,2013-06-20 21:28:00,
2013-06-20 17:43:00,75.3,51.0,30.14,West,279,0.0,5.0,43,0.00,,,0.00,302,weatherlink.com 1.10,2013-06-20 21:43:00,
2013-06-20 17:58:00,75.3,51.0,30.13,SSW,202,3.0,7.0,42,0.00,,,0.00,246,weatherlink.com 1.10,2013-06-20 21:58:00,
2013-06-20 18:13:00,73.0,48.0,30.14,ESE,120,3.0,9.0,42,0.00,,,0.00,195,weatherlink.com 1.10,2013-06-20 22:13:00,
2013-06-20 18:28:00,71.2,49.0,30.14,SE,138,1.0,7.0,45,0.00,,,0.00,90,weatherlink.com 1.10,2013-06-20 22:28:00,
2013-06-20 18:43:00,69.9,49.0,30.15,North,355,0.0,4.0,47,0.00,,,0.00,49,weatherlink.com 1.10,2013-06-20 22:43:00,
2013-06-20 18:58:00,68.6,49.0,30.15,West,259,0.0,4.0,49,0.00,,,0.00,49,weatherlink.com 1.10,2013-06-20 22:58:00,
2013-06-20 19:13:00,67.4,48.0,30.15,South,180,1.0,4.0,50,0.00,,,0.00,32,weatherlink.com 1.10,2013-06-20 23:13:00,
2013-06-20 19:28:00,66.3,48.0,30.15,SSE,163,1.0,2.0,52,0.00,,,0.00,30,weatherlink.com 1.10,2013-06-20 23:28:00,
2013-06-20 19:43:00,65.7,48.0,30.16,SE,138,0.0,4.0,53,0.00,,,0.00,21,weatherlink.com 1.10,2013-06-20 23:43:00,
2013-06-20 19:58:00,65.0,48.0,30.16,SSW,203,0.0,5.0,55,0.00,,,0.00,14,weatherlink.com 1.10,2013-06-20 23:58:00,
2013-06-20 20:13:00,64.0,48.0,30.16,WSW,248,0.0,3.0,56,0.00,,,0.00,7,weatherlink.com 1.10,2013-06-21 00:13:00,
2013-06-20 20:28:00,63.3,48.0,30.16,SSW,211,0.0,7.0,57,0.00,,,0.00,0,weatherlink.com 1.10,2013-06-21 00:28:00,
2013-06-20 20:43:00,62.4,49.0,30.16,WSW,239,1.0,4.0,61,0.00,,,0.00,0,weatherlink.com 1.10,2013-06-21 00:43:00,
2013-06-20 20:58:00,61.5,49.0,30.17,SSW,196,0.0,3.0,64,0.00,,,0.00,0,weatherlink.com 1.10,2013-06-21 00:58:00,
2013-06-20 21:13:00,60.5,50.0,30.17,West,266,0.0,4.0,68,0.00,,,0.00,0,weatherlink.com 1.10,2013-06-21 01:13:00,
2013-06-20 21:29:00,60.4,52.0,30.18,SW,221,0.0,4.0,73,0.00,,,0.00,0,weatherlink.com 1.10,2013-06-21 01:29:00,
2013-06-20 21:44:00,60.2,53.0,30.18,West,272,0.0,4.0,76,0.00,,,0.00,0,weatherlink.com 1.10,2013-06-21 01:44:00,
2013-06-20 21:59:00,59.6,53.0,30.18,West,259,2.0,3.0,79,0.00,,,0.00,0,weatherlink.com 1.10,2013-06-21 01:59:00,
2013-06-20 22:14:00,59.2,53.0,30.18,West,276,0.0,4.0,81,0.00,,,0.00,0,weatherlink.com 1.10,2013-06-21 02:14:00,
2013-06-20 22:29:00,58.5,53.0,30.17,NW,311,2.0,2.0,83,0.00,,,0.00,0,weatherlink.com 1.10,2013-06-21 02:29:00,
2013-06-20 22:44:00,58.1,54.0,30.17,SW,227,0.0,4.0,85,0.00,,,0.00,0,weatherlink.com 1.10,2013-06-21 02:44:00,
2013-06-20 22:59:00,57.4,54.0,30.17,WSW,237,0.0,0.0,87,0.00,,,0.00,0,weatherlink.com 1.10,2013-06-21 02:59:00,
2013-06-20 23:14:00,56.7,53.0,30.17,WSW,237,0.0,0.0,88,0.00,,,0.00,0,weatherlink.com 1.10,2013-06-21 03:14:00,
2013-06-20 23:29:00,56.1,53.0,30.18,WSW,237,0.0,0.0,89,0.00,,,0.00,0,weatherlink.com 1.10,2013-06-21 03:29:00,
2013-06-20 23:44:00,55.5,53.0,30.18,WSW,238,0.0,0.0,90,0.00,,,0.00,0,weatherlink.com 1.10,2013-06-21 03:44:00,
2013-06-20 23:59:00,55.0,53.0,30.17,WSW,246,0.0,1.0,91,0.00,,,0.00,0,weatherlink.com 1.10,2013-06-21 03:59:00,